Time;durP1;ratioP1;P1;durP2;ratioP2;P2;SDS_P1;SDS_P2;PMS_P1;PMS_P2;Temp;Humidity;BMP_temperature;BMP_pressure;BME280_temperature;BME280_humidity;BME280_pressure;Samples;Min_cycle;Max_cycle;Signal;HPM_P1;HPM_P2
2021/04/17 00:01:35;;;;;;;14.50;10.50;;;2.90;99.90;;;;;;4891758;29;20294;-64
2021/04/17 00:04:03;;;;;;;12.38;10.13;;;2.80;99.90;;;;;;4891284;29;20203;-64
2021/04/17 00:06:30;;;;;;;13.93;10.40;;;2.80;99.90;;;;;;4878588;29;20587;-63
2021/04/17 00:08:56;;;;;;;13.50;9.10;;;2.90;99.90;;;;;;4892071;29;20203;-64
2021/04/17 00:11:24;;;;;;;11.57;10.38;;;2.90;99.90;;;;;;4892686;29;20203;-64
2021/04/17 00:13:51;;;;;;;12.65;10.00;;;2.80;99.90;;;;;;4891913;29;20549;-64
2021/04/17 00:16:17;;;;;;;12.18;9.98;;;2.70;99.90;;;;;;4891541;29;20211;-64
2021/04/17 00:18:44;;;;;;;10.38;9.02;;;2.70;99.90;;;;;;4891498;29;20878;-64
2021/04/17 00:21:11;;;;;;;12.27;9.35;;;2.70;99.90;;;;;;4892018;29;20331;-64
2021/04/17 00:23:37;;;;;;;14.65;10.32;;;2.70;99.90;;;;;;4892206;29;20203;-64
2021/04/17 00:26:04;;;;;;;10.95;9.32;;;2.70;99.90;;;;;;4891310;29;20341;-64
2021/04/17 00:28:31;;;;;;;11.10;9.93;;;2.80;99.90;;;;;;4891794;29;20207;-65
2021/04/17 00:30:57;;;;;;;11.90;9.93;;;2.80;99.90;;;;;;4892217;29;20205;-64
2021/04/17 00:33:24;;;;;;;12.23;9.63;;;2.80;99.90;;;;;;4891439;29;20307;-64
2021/04/17 00:35:50;;;;;;;12.63;9.50;;;2.80;99.90;;;;;;4890879;29;20216;-64
2021/04/17 00:38:16;;;;;;;13.07;10.75;;;2.80;99.90;;;;;;4891461;29;20210;-64
2021/04/17 00:40:43;;;;;;;12.25;11.00;;;2.90;99.90;;;;;;4891404;29;20674;-64
2021/04/17 00:43:09;;;;;;;11.38;9.70;;;2.90;99.90;;;;;;4891508;29;20214;-64
2021/04/17 00:45:37;;;;;;;11.80;9.55;;;2.80;99.90;;;;;;4890770;29;20246;-64
2021/04/17 00:48:04;;;;;;;11.98;10.57;;;2.80;99.90;;;;;;4891265;29;20199;-64
2021/04/17 00:50:30;;;;;;;13.10;11.23;;;2.80;99.90;;;;;;4891347;29;20207;-64
2021/04/17 00:52:57;;;;;;;14.60;11.43;;;2.90;99.90;;;;;;4891813;29;20209;-64
2021/04/17 00:55:23;;;;;;;12.55;10.57;;;2.80;99.90;;;;;;4890693;29;20210;-64
2021/04/17 00:57:49;;;;;;;15.32;11.40;;;2.80;99.90;;;;;;4874074;29;20203;-64
2021/04/17 01:00:17;;;;;;;11.75;10.18;;;2.80;99.90;;;;;;4872985;29;20267;-64
2021/04/17 01:02:51;;;;;;;14.05;11.52;;;2.80;99.90;;;;;;4877328;29;20210;-64
2021/04/17 01:05:19;;;;;;;14.70;11.05;;;2.80;99.90;;;;;;4890987;29;20226;-64
2021/04/17 01:07:50;;;;;;;15.75;10.85;;;2.90;99.90;;;;;;4891166;29;20768;-64
2021/04/17 01:10:23;;;;;;;12.18;10.43;;;2.90;99.90;;;;;;4892189;29;20207;-64
2021/04/17 01:12:53;;;;;;;14.63;10.90;;;2.90;99.90;;;;;;4891581;29;20234;-64
2021/04/17 01:15:23;;;;;;;12.20;10.88;;;2.90;99.90;;;;;;4890750;29;20227;-64
2021/04/17 01:17:53;;;;;;;16.25;11.80;;;2.90;99.90;;;;;;4890798;29;20199;-64
2021/04/17 01:20:24;;;;;;;13.00;10.65;;;2.90;99.90;;;;;;4891022;29;20226;-64
2021/04/17 01:23:02;;;;;;;14.57;11.10;;;3.00;99.90;;;;;;4891752;29;20211;-64
2021/04/17 01:25:30;;;;;;;11.80;10.45;;;3.00;99.90;;;;;;4890471;29;20235;-64
2021/04/17 01:27:58;;;;;;;13.73;11.30;;;3.00;99.90;;;;;;4891477;29;20684;-64
2021/04/17 01:30:25;;;;;;;16.13;11.38;;;3.00;99.90;;;;;;4890999;29;20215;-64
2021/04/17 01:32:51;;;;;;;16.58;11.73;;;3.00;99.90;;;;;;4890532;29;20310;-65
2021/04/17 01:35:20;;;;;;;16.33;12.15;;;3.00;99.90;;;;;;4890489;29;20294;-64
2021/04/17 01:38:16;;;;;;;13.35;11.73;;;3.00;99.90;;;;;;4891156;29;20211;-64
2021/04/17 01:40:46;;;;;;;13.32;11.60;;;3.10;99.90;;;;;;4891442;29;20195;-64
2021/04/17 01:43:15;;;;;;;16.98;12.80;;;3.10;99.90;;;;;;4890944;29;20633;-64
2021/04/17 01:45:42;;;;;;;14.20;11.82;;;3.10;99.90;;;;;;4890344;29;20234;-64
2021/04/17 01:48:10;;;;;;;18.60;12.02;;;3.00;99.90;;;;;;4890560;29;20211;-64
2021/04/17 01:50:37;;;;;;;13.43;11.60;;;3.10;99.90;;;;;;4891328;29;20214;-64
2021/04/17 01:53:09;;;;;;;13.85;11.77;;;3.10;99.90;;;;;;4893976;29;20759;-65
2021/04/17 01:55:36;;;;;;;14.88;11.90;;;3.20;99.90;;;;;;4893897;29;20238;-64
2021/04/17 01:58:03;;;;;;;15.70;12.32;;;3.20;99.90;;;;;;4894539;29;20218;-64
2021/04/17 02:00:30;;;;;;;15.73;13.50;;;3.20;99.90;;;;;;4894366;29;20754;-64
2021/04/17 02:02:57;;;;;;;18.02;12.90;;;3.20;99.90;;;;;;4894156;29;20295;-64
2021/04/17 02:05:23;;;;;;;17.70;13.13;;;3.10;99.90;;;;;;4893789;29;20242;-64
2021/04/17 02:07:50;;;;;;;16.63;14.60;;;3.10;99.90;;;;;;4894361;29;20211;-64
2021/04/17 02:10:16;;;;;;;17.05;13.38;;;3.10;99.90;;;;;;4894251;29;20654;-64
2021/04/17 02:12:42;;;;;;;19.02;14.23;;;3.10;99.90;;;;;;4894208;29;20576;-64
2021/04/17 02:15:09;;;;;;;17.30;13.68;;;3.10;99.90;;;;;;4893075;29;20656;-64
2021/04/17 02:17:49;;;;;;;16.48;13.50;;;3.10;99.90;;;;;;4875567;29;20204;-64
2021/04/17 02:20:22;;;;;;;15.68;12.48;;;3.10;99.90;;;;;;4875095;29;20219;-64
2021/04/17 02:22:49;;;;;;;13.93;11.68;;;3.10;99.90;;;;;;4875441;29;20303;-64
2021/04/17 02:25:16;;;;;;;14.38;12.52;;;3.10;99.90;;;;;;4874312;29;20238;-65
2021/04/17 02:27:43;;;;;;;14.38;12.20;;;3.10;99.90;;;;;;4875322;29;20212;-64
2021/04/17 02:30:10;;;;;;;18.63;13.63;;;3.10;99.90;;;;;;4877280;29;20243;-64
2021/04/17 02:32:36;;;;;;;14.80;12.25;;;3.10;99.90;;;;;;4893267;29;20207;-64
2021/04/17 02:35:05;;;;;;;17.70;12.02;;;3.20;99.90;;;;;;4892539;29;20207;-64
2021/04/17 02:37:31;;;;;;;12.93;11.15;;;3.20;99.90;;;;;;4893696;29;20210;-64
2021/04/17 02:39:57;;;;;;;14.05;12.57;;;3.20;99.90;;;;;;4894037;29;20290;-64
2021/04/17 02:42:24;;;;;;;15.43;12.15;;;3.20;99.90;;;;;;4893851;29;20298;-64
2021/04/17 02:44:50;;;;;;;16.23;12.73;;;3.30;99.90;;;;;;4892467;29;20310;-64
2021/04/17 02:47:17;;;;;;;16.25;12.88;;;3.20;99.90;;;;;;4893991;29;20242;-64
2021/04/17 02:49:44;;;;;;;18.85;13.77;;;3.20;99.90;;;;;;4893649;29;20242;-64
2021/04/17 02:52:11;;;;;;;15.60;12.18;;;3.30;99.90;;;;;;4893576;29;20301;-64
2021/04/17 02:54:37;;;;;;;17.17;14.65;;;3.30;99.90;;;;;;4892748;29;20207;-64
2021/04/17 02:57:05;;;;;;;17.77;13.55;;;3.30;99.90;;;;;;4882296;29;20646;-64
2021/04/17 02:59:31;;;;;;;16.40;12.95;;;3.30;99.90;;;;;;4876199;29;20212;-64
2021/04/17 03:01:57;;;;;;;15.73;12.35;;;3.30;99.90;;;;;;4893012;29;20355;-64
2021/04/17 03:04:24;;;;;;;16.40;13.18;;;3.30;99.90;;;;;;4892570;29;20318;-64
2021/04/17 03:06:50;;;;;;;15.55;12.75;;;3.30;99.90;;;;;;4893223;29;20595;-64
2021/04/17 03:09:17;;;;;;;17.38;13.75;;;3.20;99.90;;;;;;4893363;29;20213;-64
2021/04/17 03:11:44;;;;;;;21.10;14.93;;;3.20;99.90;;;;;;4893192;29;20705;-64
2021/04/17 03:14:10;;;;;;;17.08;13.55;;;3.20;99.90;;;;;;4892571;29;20207;-64
2021/04/17 03:16:36;;;;;;;17.63;13.73;;;3.20;99.90;;;;;;4892838;29;20199;-64
2021/04/17 03:19:03;;;;;;;18.88;13.88;;;3.10;99.90;;;;;;4888813;29;20212;-64
2021/04/17 03:21:29;;;;;;;21.45;14.50;;;3.10;99.90;;;;;;4889867;29;20234;-64
2021/04/17 03:23:55;;;;;;;18.00;14.32;;;3.00;99.90;;;;;;4892394;29;20671;-64
2021/04/17 03:26:23;;;;;;;18.30;14.38;;;3.00;99.90;;;;;;4889002;29;20234;-64
2021/04/17 03:28:49;;;;;;;20.40;14.75;;;3.00;99.90;;;;;;4879754;29;20350;-64
2021/04/17 03:31:15;;;;;;;18.15;14.40;;;3.00;99.90;;;;;;4879510;29;20361;-64
2021/04/17 03:33:42;;;;;;;19.83;14.07;;;3.00;99.90;;;;;;4891888;29;20294;-64
2021/04/17 03:36:08;;;;;;;22.65;15.25;;;2.90;99.90;;;;;;4891790;29;20306;-64
2021/04/17 03:38:35;;;;;;;17.48;14.40;;;3.00;99.90;;;;;;4892189;29;20226;-64
2021/04/17 03:41:02;;;;;;;22.50;15.30;;;2.90;99.90;;;;;;4892596;29;20297;-63
2021/04/17 03:43:29;;;;;;;18.20;14.60;;;3.00;99.90;;;;;;4891947;29;20211;-64
2021/04/17 03:45:56;;;;;;;21.70;15.38;;;3.00;99.90;;;;;;4885191;29;20679;-63
2021/04/17 03:48:22;;;;;;;19.50;14.60;;;2.90;99.90;;;;;;4892753;29;20294;-64
2021/04/17 03:50:49;;;;;;;18.38;15.60;;;2.90;99.90;;;;;;4892576;29;20207;-64
2021/04/17 03:53:15;;;;;;;16.63;14.82;;;2.90;99.90;;;;;;4892282;29;20210;-63
2021/04/17 03:55:41;;;;;;;17.52;14.38;;;2.90;99.90;;;;;;4890880;29;20205;-65
2021/04/17 03:58:08;;;;;;;19.02;15.23;;;2.90;99.90;;;;;;4891938;29;20221;-63
2021/04/17 04:00:35;;;;;;;19.70;14.88;;;2.90;99.90;;;;;;4891557;29;20715;-63
2021/04/17 04:03:01;;;;;;;15.68;13.15;;;3.00;99.90;;;;;;4883976;29;20208;-63
2021/04/17 04:05:28;;;;;;;18.40;14.50;;;3.00;99.90;;;;;;4876121;29;20230;-64
2021/04/17 04:07:54;;;;;;;17.40;15.18;;;3.00;99.90;;;;;;4892415;29;20680;-64
2021/04/17 04:10:20;;;;;;;18.70;13.93;;;3.00;99.90;;;;;;4891824;29;20298;-63
2021/04/17 04:12:47;;;;;;;18.13;14.85;;;3.00;99.90;;;;;;4892328;29;20377;-64
2021/04/17 04:15:15;;;;;;;18.90;14.70;;;2.90;99.90;;;;;;4891167;29;20223;-64
2021/04/17 04:17:42;;;;;;;20.30;15.13;;;2.90;99.90;;;;;;4892146;29;20665;-63
2021/04/17 04:20:09;;;;;;;18.33;14.52;;;2.90;99.90;;;;;;4892027;29;20226;-63
2021/04/17 04:22:36;;;;;;;18.10;15.48;;;2.90;99.90;;;;;;4880126;29;20742;-64
2021/04/17 04:25:03;;;;;;;16.13;14.35;;;2.90;99.90;;;;;;4872394;29;20794;-64
2021/04/17 04:27:30;;;;;;;18.75;15.20;;;2.90;99.90;;;;;;4873219;29;20330;-64
2021/04/17 04:29:56;;;;;;;19.10;15.18;;;2.90;99.90;;;;;;4873617;29;20212;-64
2021/04/17 04:32:23;;;;;;;18.20;14.85;;;3.00;99.90;;;;;;4880754;29;20199;-63
2021/04/17 04:34:50;;;;;;;18.15;15.73;;;3.10;99.90;;;;;;4890816;29;20241;-64
2021/04/17 04:37:16;;;;;;;20.08;15.93;;;3.20;99.90;;;;;;4891487;29;20223;-64
2021/04/17 04:39:43;;;;;;;17.88;15.10;;;3.30;99.90;;;;;;4892206;29;20217;-63
2021/04/17 04:42:10;;;;;;;19.08;15.07;;;3.30;99.90;;;;;;4891927;29;20622;-64
2021/04/17 04:44:36;;;;;;;19.20;15.15;;;3.30;99.90;;;;;;4891017;29;20693;-64
2021/04/17 04:47:03;;;;;;;18.52;15.05;;;3.30;99.90;;;;;;4891575;29;20238;-64
2021/04/17 04:49:30;;;;;;;18.15;14.35;;;3.20;99.90;;;;;;4891505;29;20294;-63
2021/04/17 04:51:57;;;;;;;22.42;16.45;;;3.20;99.90;;;;;;4891655;29;20355;-64
2021/04/17 04:54:23;;;;;;;17.83;14.02;;;3.20;99.90;;;;;;4890603;29;20213;-64
2021/04/17 04:56:49;;;;;;;21.42;14.10;;;3.20;99.90;;;;;;4881499;29;20668;-64
2021/04/17 04:59:16;;;;;;;19.23;14.05;;;3.20;99.90;;;;;;4873010;29;20216;-64
2021/04/17 05:01:42;;;;;;;17.15;13.50;;;3.10;99.90;;;;;;4887745;29;20286;-64
2021/04/17 05:04:09;;;;;;;16.60;13.90;;;3.10;99.90;;;;;;4890277;29;20689;-64
2021/04/17 05:06:35;;;;;;;16.35;13.52;;;3.20;99.90;;;;;;4891180;29;20258;-65
2021/04/17 05:09:03;;;;;;;15.98;13.75;;;3.20;99.90;;;;;;4891813;29;20211;-64
2021/04/17 05:11:32;;;;;;;16.92;13.65;;;3.30;99.90;;;;;;4891602;29;20351;-64
2021/04/17 05:13:58;;;;;;;17.00;13.50;;;3.30;99.90;;;;;;4891066;29;20208;-64
2021/04/17 05:16:24;;;;;;;17.30;13.90;;;3.10;99.90;;;;;;4891523;29;20607;-64
2021/04/17 05:19:10;;;;;;;19.42;15.27;;;2.90;99.90;;;;;;4890785;29;20219;-64
2021/04/17 05:21:36;;;;;;;15.45;13.20;;;2.80;99.90;;;;;;4889954;29;20338;-65
2021/04/17 05:24:04;;;;;;;16.50;13.27;;;2.80;99.90;;;;;;4890765;29;20221;-64
2021/04/17 05:26:30;;;;;;;17.00;13.70;;;2.90;99.90;;;;;;4892735;29;20234;-64
2021/04/17 05:28:58;;;;;;;16.13;13.88;;;3.00;99.90;;;;;;4894820;29;20302;-64
2021/04/17 05:31:24;;;;;;;19.95;15.68;;;3.30;99.90;;;;;;4895452;29;20211;-64
2021/04/17 05:33:50;;;;;;;16.23;14.30;;;3.30;99.90;;;;;;4893528;29;20223;-64
2021/04/17 05:36:17;;;;;;;16.77;13.60;;;3.40;99.90;;;;;;4894020;29;20254;-64
2021/04/17 05:38:43;;;;;;;16.20;13.45;;;3.60;99.90;;;;;;4892745;29;20338;-64
2021/04/17 05:41:10;;;;;;;18.92;14.88;;;3.80;99.90;;;;;;4894793;29;20286;-64
2021/04/17 05:43:37;;;;;;;17.17;13.70;;;4.00;99.90;;;;;;4894680;29;20199;-64
2021/04/17 05:46:03;;;;;;;23.30;14.38;;;4.10;99.90;;;;;;4893767;29;20253;-65
2021/04/17 05:48:29;;;;;;;16.15;13.60;;;4.00;99.90;;;;;;4895477;29;20211;-64
2021/04/17 05:50:57;;;;;;;17.30;13.95;;;4.20;99.90;;;;;;4893287;29;20321;-64
2021/04/17 05:53:24;;;;;;;21.88;14.27;;;4.40;99.90;;;;;;4894543;29;20287;-64
2021/04/17 05:55:50;;;;;;;16.52;14.43;;;4.30;99.90;;;;;;4891521;29;20290;-65
2021/04/17 05:58:17;;;;;;;18.15;15.57;;;4.30;99.90;;;;;;4891326;29;20219;-64
2021/04/17 06:00:43;;;;;;;14.82;13.15;;;4.30;99.90;;;;;;4894637;29;20210;-65
2021/04/17 06:03:10;;;;;;;15.43;12.13;;;4.40;99.90;;;;;;4894625;29;20219;-65
2021/04/17 06:05:36;;;;;;;12.95;11.63;;;4.50;99.90;;;;;;4893709;29;20368;-64
2021/04/17 06:08:03;;;;;;;22.63;13.30;;;4.60;99.90;;;;;;4894032;29;20203;-64
2021/04/17 06:10:29;;;;;;;17.08;13.27;;;4.70;99.90;;;;;;4895060;29;20211;-64
2021/04/17 06:12:55;;;;;;;18.15;12.20;;;4.80;99.90;;;;;;4893768;29;20199;-65
2021/04/17 06:15:24;;;;;;;24.45;14.45;;;4.80;99.90;;;;;;4893647;29;20371;-64
2021/04/17 06:17:50;;;;;;;17.25;14.38;;;5.00;99.90;;;;;;4882838;29;20270;-65
2021/04/17 06:20:17;;;;;;;17.20;14.40;;;5.10;99.90;;;;;;4887510;29;20259;-65
2021/04/17 06:22:43;;;;;;;16.17;13.98;;;5.10;99.90;;;;;;4883982;29;20200;-64
2021/04/17 06:25:11;;;;;;;16.80;13.68;;;5.20;99.90;;;;;;4889669;29;20732;-65
2021/04/17 06:27:38;;;;;;;17.30;14.10;;;5.40;99.90;;;;;;4885773;29;20329;-65
2021/04/17 06:30:06;;;;;;;16.15;13.60;;;5.60;99.90;;;;;;4887009;29;20242;-65
2021/04/17 06:32:34;;;;;;;16.65;14.00;;;5.90;99.90;;;;;;4889089;29;20211;-64
2021/04/17 06:35:00;;;;;;;17.30;14.20;;;6.20;99.90;;;;;;4887244;29;20207;-64
2021/04/17 06:37:26;;;;;;;13.98;12.48;;;6.40;99.90;;;;;;4892601;29;20258;-67
2021/04/17 06:39:53;;;;;;;17.50;15.07;;;6.50;99.90;;;;;;4886953;29;20204;-64
2021/04/17 06:42:20;;;;;;;15.73;13.90;;;6.60;99.60;;;;;;4888560;29;20203;-67
2021/04/17 06:44:48;;;;;;;16.75;14.48;;;7.00;98.00;;;;;;4890862;29;20209;-64
2021/04/17 06:47:15;;;;;;;17.80;13.05;;;7.20;96.70;;;;;;4892521;29;20241;-66
2021/04/17 06:49:43;;;;;;;13.63;12.23;;;7.40;96.70;;;;;;4886479;29;20221;-67
2021/04/17 06:52:12;;;;;;;17.42;14.57;;;7.70;96.00;;;;;;4888072;29;20708;-65
2021/04/17 06:54:39;;;;;;;16.70;14.00;;;8.00;96.10;;;;;;4889132;29;20213;-66
2021/04/17 06:57:06;;;;;;;17.27;14.23;;;8.30;95.70;;;;;;4892282;29;20203;-66
2021/04/17 06:59:33;;;;;;;14.75;12.65;;;8.90;94.60;;;;;;4892454;29;20218;-66
2021/04/17 07:02:00;;;;;;;16.77;14.98;;;9.30;93.10;;;;;;4890409;29;20286;-66
2021/04/17 07:04:26;;;;;;;17.10;13.93;;;9.20;92.20;;;;;;4886929;29;20547;-66
2021/04/17 07:06:54;;;;;;;15.40;13.57;;;9.10;92.30;;;;;;4891281;29;20231;-66
2021/04/17 07:09:22;;;;;;;17.20;14.80;;;8.60;93.00;;;;;;4890029;29;20673;-66
2021/04/17 07:11:48;;;;;;;18.17;14.90;;;8.50;94.20;;;;;;4886946;29;20211;-66
2021/04/17 07:14:16;;;;;;;14.20;12.73;;;8.60;94.40;;;;;;4892176;29;20223;-66
2021/04/17 07:16:59;;;;;;;14.60;12.77;;;8.70;93.70;;;;;;4889487;29;20211;-66
2021/04/17 07:19:44;;;;;;;17.15;13.40;;;8.70;93.90;;;;;;4892036;29;20552;-66
2021/04/17 07:22:16;;;;;;;17.92;13.32;;;9.20;93.10;;;;;;4885692;29;20214;-66
2021/04/17 07:24:43;;;;;;;15.23;13.45;;;9.50;91.90;;;;;;4888700;29;20571;-66
2021/04/17 07:27:09;;;;;;;14.68;12.00;;;10.40;90.20;;;;;;4890205;29;20239;-66
2021/04/17 07:29:40;;;;;;;14.88;12.90;;;11.00;88.60;;;;;;4892217;29;20734;-66
2021/04/17 07:32:17;;;;;;;13.93;12.43;;;11.30;87.00;;;;;;4879466;29;20412;-66
2021/04/17 07:35:05;;;;;;;14.90;13.20;;;12.90;82.00;;;;;;4886731;29;20356;-66
2021/04/17 07:37:32;;;;;;;15.90;13.82;;;12.40;78.70;;;;;;4885344;29;20772;-66
2021/04/17 07:40:22;;;;;;;14.43;12.93;;;12.90;77.90;;;;;;4884152;29;20208;-66
2021/04/17 07:42:51;;;;;;;16.20;14.60;;;13.10;77.50;;;;;;4886318;29;20215;-66
2021/04/17 07:45:24;;;;;;;15.43;13.93;;;12.70;79.60;;;;;;4883577;29;20258;-66
2021/04/17 07:47:52;;;;;;;15.75;13.85;;;11.90;79.20;;;;;;4881872;29;20242;-65
2021/04/17 07:50:19;;;;;;;16.80;15.00;;;11.60;82.70;;;;;;4884606;29;20294;-65
2021/04/17 07:52:48;;;;;;;16.80;15.07;;;11.50;83.70;;;;;;4881777;29;20207;-65
2021/04/17 07:55:17;;;;;;;16.17;14.48;;;11.40;82.50;;;;;;4886048;29;20768;-65
2021/04/17 07:57:45;;;;;;;16.17;14.45;;;11.20;84.10;;;;;;4890160;29;20207;-65
2021/04/17 08:00:14;;;;;;;17.90;15.75;;;11.00;84.80;;;;;;4880089;29;20588;-65
2021/04/17 08:02:43;;;;;;;16.05;13.98;;;10.90;85.90;;;;;;4887976;29;20226;-65
2021/04/17 08:05:12;;;;;;;17.63;15.13;;;10.60;85.40;;;;;;4880202;29;20226;-65
2021/04/17 08:07:39;;;;;;;16.13;14.30;;;10.40;86.70;;;;;;4889350;29;20239;-65
2021/04/17 08:10:08;;;;;;;20.58;16.63;;;10.30;86.70;;;;;;4886097;29;20219;-65
2021/04/17 08:12:36;;;;;;;17.38;14.80;;;10.50;88.50;;;;;;4890090;29;20311;-65
2021/04/17 08:15:04;;;;;;;16.83;14.00;;;10.30;86.80;;;;;;4888898;29;20211;-65
2021/04/17 08:17:31;;;;;;;16.30;14.57;;;10.50;88.00;;;;;;4886517;29;20208;-65
2021/04/17 08:19:57;;;;;;;19.83;16.33;;;10.80;87.00;;;;;;4889373;29;20215;-65
2021/04/17 08:22:26;;;;;;;15.10;13.30;;;10.70;85.40;;;;;;4891773;29;20290;-65
2021/04/17 08:24:53;;;;;;;14.43;12.32;;;11.10;86.40;;;;;;4890099;29;20215;-65
2021/04/17 08:27:20;;;;;;;14.60;13.10;;;11.40;82.20;;;;;;4889623;29;20227;-65
2021/04/17 08:29:51;;;;;;;13.85;12.45;;;11.20;83.20;;;;;;4885066;29;20207;-65
2021/04/17 08:32:25;;;;;;;15.38;12.05;;;11.30;81.40;;;;;;4889805;29;20211;-65
2021/04/17 08:35:00;;;;;;;14.45;12.95;;;11.30;81.30;;;;;;4883767;29;20670;-65
2021/04/17 08:37:26;;;;;;;14.80;12.45;;;10.80;83.40;;;;;;4889024;29;20686;-65
2021/04/17 08:39:54;;;;;;;13.98;11.93;;;10.80;84.00;;;;;;4886324;29;20218;-64
2021/04/17 08:42:42;;;;;;;16.20;12.75;;;11.00;84.10;;;;;;4889427;29;20258;-65
2021/04/17 08:45:11;;;;;;;14.07;12.63;;;11.20;83.30;;;;;;4889439;29;20579;-65
2021/04/17 08:47:52;;;;;;;14.70;12.63;;;11.10;82.40;;;;;;4888567;29;20234;-65
2021/04/17 08:50:30;;;;;;;14.75;12.85;;;11.40;83.50;;;;;;4887361;29;20757;-65
2021/04/17 08:52:58;;;;;;;13.80;12.30;;;11.70;83.90;;;;;;4887421;29;20630;-65
2021/04/17 08:55:27;;;;;;;17.10;13.00;;;11.90;81.90;;;;;;4889381;29;20215;-64
2021/04/17 08:58:18;;;;;;;13.93;11.68;;;11.60;80.40;;;;;;4885895;29;20215;-64
2021/04/17 09:01:06;;;;;;;15.05;12.27;;;11.10;80.80;;;;;;4887287;29;20294;-64
2021/04/17 09:03:38;;;;;;;14.90;12.43;;;11.80;78.90;;;;;;4892799;29;20211;-65
2021/04/17 09:06:05;;;;;;;16.73;13.18;;;11.60;80.70;;;;;;4892348;29;20980;-64
2021/04/17 09:08:31;;;;;;;15.95;12.98;;;11.10;80.40;;;;;;4894987;29;20679;-64
2021/04/17 09:10:58;;;;;;;12.48;10.85;;;11.20;82.30;;;;;;4894238;29;20203;-65
2021/04/17 09:13:33;;;;;;;16.85;12.40;;;10.90;81.20;;;;;;4890072;29;20242;-65
2021/04/17 09:16:04;;;;;;;14.18;11.75;;;10.90;82.10;;;;;;4884378;29;21416;-64
2021/04/17 09:18:40;;;;;;;17.35;12.57;;;10.80;82.30;;;;;;4893193;29;20282;-64
2021/04/17 09:21:31;;;;;;;13.45;12.10;;;10.50;82.20;;;;;;4889696;29;20214;-64
2021/04/17 09:23:57;;;;;;;12.43;11.10;;;10.10;82.40;;;;;;4893040;29;20549;-64
2021/04/17 09:26:41;;;;;;;13.02;10.90;;;10.30;82.00;;;;;;4890545;29;20324;-64
2021/04/17 09:29:22;;;;;;;14.88;13.05;;;10.70;82.30;;;;;;4891156;29;20214;-64
2021/04/17 09:31:51;;;;;;;12.65;11.35;;;10.80;82.80;;;;;;4892897;29;20588;-65
2021/04/17 09:34:18;;;;;;;13.38;11.93;;;10.90;84.00;;;;;;4890098;29;20242;-64
2021/04/17 09:36:48;;;;;;;11.55;10.35;;;10.90;83.10;;;;;;4886677;29;20223;-64
2021/04/17 09:39:26;;;;;;;15.57;11.75;;;10.90;82.00;;;;;;4893380;29;20214;-64
2021/04/17 09:41:54;;;;;;;11.50;9.90;;;10.80;81.80;;;;;;4883576;29;20267;-64
2021/04/17 09:44:21;;;;;;;11.05;9.77;;;10.90;81.40;;;;;;4887771;29;20222;-64
2021/04/17 09:47:03;;;;;;;10.05;7.85;;;11.10;78.10;;;;;;4880461;29;20238;-64
2021/04/17 09:49:35;;;;;;;8.82;7.93;;;10.90;78.40;;;;;;4889660;29;20214;-64
2021/04/17 09:52:02;;;;;;;9.27;8.38;;;11.00;77.00;;;;;;4887292;29;20208;-64
2021/04/17 09:54:28;;;;;;;10.40;7.57;;;11.20;77.80;;;;;;4889045;29;20925;-65
2021/04/17 09:56:55;;;;;;;10.45;7.25;;;11.60;74.60;;;;;;4888081;29;20310;-64
2021/04/17 09:59:22;;;;;;;9.32;8.23;;;11.40;74.30;;;;;;4892404;29;20267;-65
2021/04/17 10:01:53;;;;;;;7.55;6.85;;;11.40;73.30;;;;;;4891743;29;20215;-64
2021/04/17 10:04:19;;;;;;;8.00;7.30;;;11.20;74.30;;;;;;4887055;29;20295;-65
2021/04/17 10:06:55;;;;;;;7.95;6.75;;;11.10;74.70;;;;;;4892890;29;20303;-64
2021/04/17 10:09:21;;;;;;;7.85;7.05;;;10.90;75.50;;;;;;4881608;29;20207;-64
2021/04/17 10:11:49;;;;;;;7.40;6.80;;;10.70;74.10;;;;;;4886837;29;20212;-64
2021/04/17 10:14:17;;;;;;;10.18;8.15;;;10.50;74.90;;;;;;4888214;29;20240;-64
2021/04/17 10:16:47;;;;;;;7.80;7.00;;;10.60;74.70;;;;;;4890813;29;20302;-64
2021/04/17 10:19:15;;;;;;;8.10;7.40;;;10.70;74.90;;;;;;4888174;29;20911;-64
2021/04/17 10:21:42;;;;;;;8.60;7.43;;;10.70;75.20;;;;;;4893684;29;20654;-64
2021/04/17 10:24:21;;;;;;;8.88;7.90;;;10.50;77.40;;;;;;4890923;29;20665;-64
2021/04/17 10:26:49;;;;;;;9.10;8.20;;;10.30;78.40;;;;;;4880301;29;20230;-64
2021/04/17 10:29:15;;;;;;;9.18;7.70;;;10.50;75.40;;;;;;4890431;29;20673;-64
2021/04/17 10:31:42;;;;;;;8.20;7.40;;;10.60;75.80;;;;;;4889321;29;20207;-64
2021/04/17 10:34:09;;;;;;;8.50;6.90;;;10.60;73.70;;;;;;4882089;29;20497;-65
2021/04/17 10:36:36;;;;;;;8.70;7.47;;;10.60;75.50;;;;;;4890432;29;20302;-64
2021/04/17 10:39:06;;;;;;;7.30;6.60;;;10.70;73.60;;;;;;4891373;29;20289;-64
2021/04/17 10:41:34;;;;;;;8.90;8.00;;;11.10;72.40;;;;;;4892367;29;20307;-65
2021/04/17 10:44:10;;;;;;;8.60;7.15;;;11.30;71.80;;;;;;4892387;29;20213;-64
2021/04/17 10:46:41;;;;;;;8.45;7.65;;;11.70;72.60;;;;;;4890269;29;20227;-65
2021/04/17 10:49:09;;;;;;;8.48;7.55;;;12.20;72.20;;;;;;4892933;29;20217;-64
2021/04/17 10:51:37;;;;;;;10.38;9.35;;;12.90;74.30;;;;;;4893977;29;20219;-64
2021/04/17 10:54:04;;;;;;;8.55;7.55;;;13.50;71.00;;;;;;4892488;29;20211;-65
2021/04/17 10:56:31;;;;;;;9.45;8.65;;;13.80;67.30;;;;;;4892764;29;20677;-65
2021/04/17 10:59:00;;;;;;;9.25;8.02;;;13.80;67.50;;;;;;4882232;29;20214;-64
2021/04/17 11:01:28;;;;;;;9.45;8.45;;;13.40;69.10;;;;;;4892586;29;20665;-64
2021/04/17 11:03:58;;;;;;;7.88;7.18;;;13.30;70.20;;;;;;4891851;29;20677;-64
2021/04/17 11:06:27;;;;;;;11.32;7.78;;;13.20;67.60;;;;;;4890910;29;20239;-64
2021/04/17 11:09:05;;;;;;;9.35;8.10;;;12.60;68.00;;;;;;4892259;29;20587;-64
2021/04/17 11:11:32;;;;;;;8.88;7.70;;;11.90;71.40;;;;;;4891325;29;20207;-64
2021/04/17 11:14:00;;;;;;;8.70;7.80;;;11.90;70.90;;;;;;4886769;29;20242;-65
2021/04/17 11:16:35;;;;;;;9.10;8.20;;;12.00;69.50;;;;;;4892017;29;20207;-64
2021/04/17 11:19:02;;;;;;;8.68;7.60;;;12.30;72.90;;;;;;4888681;29;20290;-64
2021/04/17 11:21:29;;;;;;;6.70;6.00;;;12.50;71.60;;;;;;4890283;29;20305;-64
2021/04/17 11:23:57;;;;;;;6.93;6.15;;;12.70;70.10;;;;;;4890098;29;20331;-64
2021/04/17 11:26:25;;;;;;;6.68;6.07;;;12.90;70.90;;;;;;4892358;29;20230;-65
2021/04/17 11:28:54;;;;;;;7.40;6.20;;;12.60;69.40;;;;;;4892818;29;20204;-65
2021/04/17 11:31:22;;;;;;;6.70;6.10;;;12.90;70.10;;;;;;4887535;29;20306;-65
2021/04/17 11:33:50;;;;;;;6.20;5.60;;;13.10;69.30;;;;;;4894546;29;20227;-66
2021/04/17 11:36:16;;;;;;;8.80;6.15;;;12.90;68.70;;;;;;4883657;29;20609;-65
2021/04/17 11:38:43;;;;;;;6.85;6.20;;;13.10;68.60;;;;;;4890896;29;20269;-64
2021/04/17 11:41:10;;;;;;;7.22;6.63;;;12.90;70.50;;;;;;4886616;29;20219;-65
2021/04/17 11:43:38;;;;;;;7.53;6.72;;;13.20;70.30;;;;;;4894443;29;20214;-64
2021/04/17 11:46:05;;;;;;;8.73;7.82;;;12.90;67.90;;;;;;4894162;29;20247;-65
2021/04/17 11:48:31;;;;;;;9.02;7.88;;;12.70;68.40;;;;;;4895315;29;20203;-65
2021/04/17 11:50:58;;;;;;;10.57;7.55;;;12.90;70.50;;;;;;4896192;29;20213;-65
2021/04/17 11:53:25;;;;;;;13.48;8.45;;;13.00;67.60;;;;;;4895105;29;20275;-64
2021/04/17 11:55:53;;;;;;;9.25;8.25;;;13.30;69.90;;;;;;4891694;29;20249;-64
2021/04/17 11:58:21;;;;;;;9.60;8.60;;;13.30;67.80;;;;;;4888249;29;20207;-64
2021/04/17 12:00:47;;;;;;;8.13;7.30;;;13.30;67.40;;;;;;4889675;29;20695;-65
2021/04/17 12:03:20;;;;;;;8.43;7.63;;;13.20;71.30;;;;;;4886644;29;20221;-64
2021/04/17 12:05:46;;;;;;;8.15;7.45;;;13.50;69.30;;;;;;4890293;29;20294;-64
2021/04/17 12:08:13;;;;;;;8.23;7.43;;;13.80;66.50;;;;;;4891705;29;20239;-64
2021/04/17 12:10:39;;;;;;;8.45;7.55;;;13.90;67.50;;;;;;4891409;29;20676;-64
2021/04/17 12:13:06;;;;;;;8.55;7.85;;;14.10;67.60;;;;;;4891915;29;20215;-64
2021/04/17 12:15:33;;;;;;;9.40;8.35;;;14.00;62.70;;;;;;4890918;29;20307;-64
2021/04/17 12:17:59;;;;;;;8.50;7.70;;;13.60;64.20;;;;;;4891525;29;20210;-64
2021/04/17 12:20:25;;;;;;;12.10;9.07;;;13.50;66.50;;;;;;4889230;29;20255;-64
2021/04/17 12:22:52;;;;;;;10.65;9.55;;;13.40;64.60;;;;;;4889138;29;20347;-64
2021/04/17 12:25:18;;;;;;;7.85;7.05;;;12.50;64.00;;;;;;4890659;29;20669;-64
2021/04/17 12:27:45;;;;;;;8.40;7.20;;;12.00;65.30;;;;;;4891901;29;20245;-64
2021/04/17 12:30:13;;;;;;;8.70;6.40;;;11.80;66.70;;;;;;4886723;29;20314;-64
2021/04/17 12:32:40;;;;;;;16.65;11.60;;;11.60;67.00;;;;;;4889315;29;20641;-64
2021/04/17 12:35:07;;;;;;;7.63;6.82;;;11.40;68.40;;;;;;4890260;29;20294;-64
2021/04/17 12:37:34;;;;;;;7.45;6.25;;;11.60;67.80;;;;;;4889932;29;20728;-64
2021/04/17 12:40:00;;;;;;;6.70;5.93;;;11.50;68.80;;;;;;4890758;29;20230;-64
2021/04/17 12:42:27;;;;;;;5.97;5.22;;;11.80;66.70;;;;;;4891401;29;20215;-64
2021/04/17 12:44:53;;;;;;;7.57;6.40;;;11.90;68.00;;;;;;4889111;29;20211;-64